createdAt,value
2018-09-28T00:02:00.000Z,13.4
2018-09-28T00:07:00.000Z,13.3
2018-09-28T00:12:00.000Z,13.2
2018-09-28T00:17:00.000Z,13.0
2018-09-28T00:22:00.000Z,13.0
2018-09-28T00:27:00.000Z,12.9
2018-09-28T00:32:00.000Z,12.9
2018-09-28T00:37:00.000Z,13.0
2018-09-28T00:42:00.000Z,13.0
2018-09-28T00:47:00.000Z,13.0
2018-09-28T00:52:00.000Z,12.9
2018-09-28T00:57:00.000Z,12.8
2018-09-28T01:02:00.000Z,12.7
2018-09-28T01:07:00.000Z,12.6
2018-09-28T01:12:00.000Z,12.5
2018-09-28T01:17:00.000Z,12.4
2018-09-28T01:22:00.000Z,12.3
2018-09-28T01:27:00.000Z,12.2
2018-09-28T01:32:00.000Z,12.2
2018-09-28T01:37:00.000Z,12.1
2018-09-28T01:42:00.000Z,12.1
2018-09-28T01:47:00.000Z,12.1
2018-09-28T01:52:00.000Z,12.1
2018-09-28T01:57:00.000Z,12.1
2018-09-28T02:02:00.000Z,12.1
2018-09-28T02:07:00.000Z,12.1
2018-09-28T02:12:00.000Z,12.1
2018-09-28T02:17:00.000Z,12.0
2018-09-28T02:22:00.000Z,11.9
2018-09-28T02:27:00.000Z,11.9
2018-09-28T02:32:00.000Z,11.9
2018-09-28T02:37:00.000Z,11.9
2018-09-28T02:42:00.000Z,11.9
2018-09-28T02:47:00.000Z,12.0
2018-09-28T02:52:00.000Z,12.0
2018-09-28T02:57:00.000Z,12.0
2018-09-28T03:02:00.000Z,12.1
2018-09-28T03:07:00.000Z,12.1
2018-09-28T03:12:00.000Z,12.1
2018-09-28T03:17:00.000Z,12.1
2018-09-28T03:22:00.000Z,12.2
2018-09-28T03:27:00.000Z,12.2
2018-09-28T03:32:00.000Z,12.2
2018-09-28T03:37:00.000Z,12.2
2018-09-28T03:42:00.000Z,12.2
2018-09-28T03:47:00.000Z,12.2
2018-09-28T03:52:00.000Z,12.1
2018-09-28T03:57:00.000Z,12.1
2018-09-28T04:02:00.000Z,12.0
2018-09-28T04:07:00.000Z,11.9
2018-09-28T04:12:00.000Z,11.8
2018-09-28T04:17:00.000Z,11.7
2018-09-28T04:22:00.000Z,11.7
2018-09-28T04:27:00.000Z,11.6
2018-09-28T04:32:00.000Z,11.6
2018-09-28T04:37:00.000Z,11.6
2018-09-28T04:42:00.000Z,11.6
2018-09-28T04:47:00.000Z,11.7
2018-09-28T04:53:00.000Z,11.8
2018-09-28T04:58:00.000Z,11.8
2018-09-28T05:03:00.000Z,11.9
2018-09-28T05:08:00.000Z,11.9
2018-09-28T05:13:00.000Z,12.0
2018-09-28T05:18:00.000Z,12.1
2018-09-28T05:23:00.000Z,12.1
2018-09-28T05:28:00.000Z,12.2
2018-09-28T05:33:00.000Z,12.2
2018-09-28T05:38:00.000Z,12.3
2018-09-28T05:43:00.000Z,12.3
2018-09-28T05:48:00.000Z,12.4
2018-09-28T05:53:00.000Z,12.4
2018-09-28T05:58:00.000Z,12.5
2018-09-28T06:03:00.000Z,12.5
2018-09-28T06:08:00.000Z,12.6
2018-09-28T06:13:00.000Z,12.6
2018-09-28T06:18:00.000Z,12.6
2018-09-28T06:23:00.000Z,12.7
2018-09-28T06:28:00.000Z,12.8
2018-09-28T06:33:00.000Z,12.9
2018-09-28T06:38:00.000Z,13.0
2018-09-28T06:43:00.000Z,13.1
2018-09-28T06:48:00.000Z,13.2
2018-09-28T06:53:00.000Z,13.3
2018-09-28T06:58:00.000Z,13.4
2018-09-28T07:03:00.000Z,13.6
2018-09-28T07:08:00.000Z,13.7
2018-09-28T07:13:00.000Z,13.8
2018-09-28T07:18:00.000Z,13.9
2018-09-28T07:23:00.000Z,14.1
2018-09-28T07:28:00.000Z,14.2
2018-09-28T07:33:00.000Z,14.3
2018-09-28T07:38:00.000Z,14.4
2018-09-28T07:43:00.000Z,14.5
2018-09-28T07:48:00.000Z,14.7
2018-09-28T07:53:00.000Z,14.8
2018-09-28T07:58:00.000Z,15.0
2018-09-28T08:03:00.000Z,15.2
2018-09-28T08:08:00.000Z,15.4
2018-09-28T08:13:00.000Z,15.6
2018-09-28T08:18:00.000Z,15.8
2018-09-28T08:23:00.000Z,16.0
2018-09-28T08:28:00.000Z,16.2
2018-09-28T08:33:00.000Z,17.2
2018-09-28T08:38:00.000Z,18.8
2018-09-28T08:43:00.000Z,20.3
2018-09-28T08:48:00.000Z,21.7
2018-09-28T08:53:00.000Z,22.9
2018-09-28T08:58:00.000Z,23.6
2018-09-28T09:03:00.000Z,24.4
2018-09-28T09:08:00.000Z,24.8
2018-09-28T09:13:00.000Z,25.2
2018-09-28T09:18:00.000Z,25.4
2018-09-28T09:23:00.000Z,25.9
2018-09-28T09:28:00.000Z,26.1
2018-09-28T09:33:00.000Z,26.3
2018-09-28T09:38:00.000Z,26.6
2018-09-28T09:43:00.000Z,26.8
2018-09-28T09:48:00.000Z,27.0
2018-09-28T09:53:00.000Z,27.1
2018-09-28T09:58:00.000Z,27.1
2018-09-28T10:03:00.000Z,26.8
2018-09-28T10:08:00.000Z,26.7
2018-09-28T10:13:00.000Z,26.6
2018-09-28T10:18:00.000Z,26.7
2018-09-28T10:23:00.000Z,26.8
2018-09-28T10:28:00.000Z,26.8
2018-09-28T10:33:00.000Z,26.9
2018-09-28T10:38:00.000Z,26.7
2018-09-28T10:43:00.000Z,26.3
2018-09-28T10:49:00.000Z,25.8
2018-09-28T10:54:00.000Z,25.7
2018-09-28T10:59:00.000Z,25.6
2018-09-28T11:04:00.000Z,25.6
2018-09-28T11:09:00.000Z,25.5
2018-09-28T11:14:00.000Z,25.2
2018-09-28T11:19:00.000Z,25.1
2018-09-28T11:24:00.000Z,25.0
2018-09-28T11:29:00.000Z,24.9
2018-09-28T11:34:00.000Z,24.6
2018-09-28T11:39:00.000Z,24.2
2018-09-28T11:44:00.000Z,24.0
2018-09-28T11:49:00.000Z,23.9
2018-09-28T11:54:00.000Z,23.9
2018-09-28T11:59:00.000Z,23.9
2018-09-28T12:04:00.000Z,23.9
2018-09-28T12:09:00.000Z,24.0
2018-09-28T12:14:00.000Z,24.1
2018-09-28T12:19:00.000Z,24.3
2018-09-28T12:24:00.000Z,24.4
2018-09-28T12:29:00.000Z,24.5
2018-09-28T12:34:00.000Z,24.7
2018-09-28T12:39:00.000Z,24.9
2018-09-28T12:44:00.000Z,25.1
2018-09-28T12:49:00.000Z,25.1
2018-09-28T12:54:00.000Z,25.1
2018-09-28T12:59:00.000Z,25.1
2018-09-28T13:04:00.000Z,25.0
2018-09-28T13:09:00.000Z,25.1
2018-09-28T13:14:00.000Z,25.1
2018-09-28T13:19:00.000Z,25.2
2018-09-28T13:24:00.000Z,25.2
2018-09-28T13:29:00.000Z,25.1
2018-09-28T13:34:00.000Z,25.3
2018-09-28T13:39:00.000Z,25.2
2018-09-28T13:44:00.000Z,25.1
2018-09-28T13:49:00.000Z,24.9
2018-09-28T13:54:00.000Z,24.8
2018-09-28T13:59:00.000Z,24.8
2018-09-28T14:04:00.000Z,24.8
2018-09-28T14:09:00.000Z,24.7
2018-09-28T14:14:00.000Z,24.6
2018-09-28T14:19:00.000Z,24.5
2018-09-28T14:25:00.000Z,24.4
2018-09-28T14:30:00.000Z,24.3
2018-09-28T14:35:00.000Z,24.1
2018-09-28T14:40:00.000Z,23.9
2018-09-28T14:45:00.000Z,23.8
2018-09-28T14:50:00.000Z,23.7
2018-09-28T14:55:00.000Z,23.6
2018-09-28T15:00:00.000Z,23.4
2018-09-28T15:05:00.000Z,23.3
2018-09-28T15:10:00.000Z,23.2
2018-09-28T15:15:00.000Z,23.1
2018-09-28T15:20:00.000Z,23.0
2018-09-28T15:25:00.000Z,22.9
2018-09-28T15:30:00.000Z,22.7
2018-09-28T15:35:00.000Z,22.6
2018-09-28T15:40:00.000Z,22.5
2018-09-28T15:45:00.000Z,22.4
2018-09-28T15:50:00.000Z,22.2
2018-09-28T15:55:00.000Z,22.1
2018-09-28T16:00:00.000Z,22.0
2018-09-28T16:05:00.000Z,21.9
2018-09-28T16:10:00.000Z,21.8
2018-09-28T16:15:00.000Z,21.7
2018-09-28T16:20:00.000Z,21.5
2018-09-28T16:25:00.000Z,21.4
2018-09-28T16:30:00.000Z,21.3
2018-09-28T16:35:00.000Z,21.2
2018-09-28T16:40:00.000Z,21.1
2018-09-28T16:45:00.000Z,21.0
2018-09-28T16:50:00.000Z,20.9
2018-09-28T16:55:00.000Z,20.8
2018-09-28T17:00:00.000Z,20.6
2018-09-28T17:05:00.000Z,20.6
2018-09-28T17:10:00.000Z,20.5
2018-09-28T17:15:00.000Z,20.4
2018-09-28T17:20:00.000Z,20.4
2018-09-28T17:25:00.000Z,20.3
2018-09-28T17:30:00.000Z,20.3
2018-09-28T17:35:00.000Z,20.3
2018-09-28T17:40:00.000Z,20.2
2018-09-28T17:45:00.000Z,20.2
2018-09-28T17:50:00.000Z,20.2
2018-09-28T17:55:00.000Z,20.2
2018-09-28T18:00:00.000Z,20.2
2018-09-28T18:05:00.000Z,20.2
2018-09-28T18:10:00.000Z,20.2
2018-09-28T18:15:00.000Z,20.2
2018-09-28T18:20:00.000Z,20.2
2018-09-28T18:25:00.000Z,20.2
2018-09-28T18:30:00.000Z,20.1
2018-09-28T18:35:00.000Z,20.1
2018-09-28T18:40:00.000Z,20.0
2018-09-28T18:45:00.000Z,19.9
2018-09-28T18:50:00.000Z,19.9
2018-09-28T18:55:00.000Z,19.8
2018-09-28T19:00:00.000Z,19.7
2018-09-28T19:05:00.000Z,19.6
2018-09-28T19:10:00.000Z,19.5
2018-09-28T19:15:00.000Z,19.5
2018-09-28T19:20:00.000Z,19.4
2018-09-28T19:25:00.000Z,19.3
2018-09-28T19:30:00.000Z,19.3
2018-09-28T19:35:00.000Z,19.2
2018-09-28T19:40:00.000Z,19.2
2018-09-28T19:45:00.000Z,19.1
2018-09-28T19:50:00.000Z,19.1
2018-09-28T19:55:00.000Z,19.0
2018-09-28T20:00:00.000Z,19.0
2018-09-28T20:05:00.000Z,18.9
2018-09-28T20:11:00.000Z,18.8
2018-09-28T20:16:00.000Z,18.6
2018-09-28T20:21:00.000Z,18.5
2018-09-28T20:26:00.000Z,18.4
2018-09-28T20:31:00.000Z,18.3
2018-09-28T20:36:00.000Z,18.2
2018-09-28T20:41:00.000Z,18.1
2018-09-28T20:46:00.000Z,18.0
2018-09-28T20:51:00.000Z,17.8
2018-09-28T20:56:00.000Z,17.7
2018-09-28T21:01:00.000Z,17.6
2018-09-28T21:06:00.000Z,17.6
2018-09-28T21:11:00.000Z,17.5
2018-09-28T21:16:00.000Z,17.4
2018-09-28T21:21:00.000Z,17.3
2018-09-28T21:26:00.000Z,17.2
2018-09-28T21:31:00.000Z,17.1
2018-09-28T21:36:00.000Z,17.0
2018-09-28T21:41:00.000Z,16.9
2018-09-28T21:46:00.000Z,16.8
2018-09-28T21:51:00.000Z,16.7
2018-09-28T21:56:00.000Z,16.6
2018-09-28T22:01:00.000Z,16.5
2018-09-28T22:06:00.000Z,16.4
2018-09-28T22:11:00.000Z,16.3
2018-09-28T22:16:00.000Z,16.3
2018-09-28T22:21:00.000Z,16.2
2018-09-28T22:26:00.000Z,16.1
2018-09-28T22:31:00.000Z,16.0
2018-09-28T22:36:00.000Z,15.9
2018-09-28T22:41:00.000Z,15.8
2018-09-28T22:46:00.000Z,15.7
2018-09-28T22:51:00.000Z,15.5
2018-09-28T22:56:00.000Z,15.4
2018-09-28T23:01:00.000Z,15.2
2018-09-28T23:06:00.000Z,15.1
2018-09-28T23:11:00.000Z,15.1
2018-09-28T23:16:00.000Z,15.0
2018-09-28T23:21:00.000Z,14.9
2018-09-28T23:26:00.000Z,14.9
2018-09-28T23:31:00.000Z,14.9
2018-09-28T23:36:00.000Z,14.9
2018-09-28T23:41:00.000Z,14.9
2018-09-28T23:46:00.000Z,14.9
2018-09-28T23:51:00.000Z,14.8
2018-09-28T23:56:00.000Z,14.8
